createdAt,value
2023-01-27T00:02:44.150Z,98.20
2023-01-27T00:05:30.542Z,98.20
2023-01-27T00:08:17.742Z,98.10
2023-01-27T00:11:22.345Z,98.00
2023-01-27T00:14:08.605Z,98.10
2023-01-27T00:16:54.542Z,98.00
2023-01-27T00:19:44.767Z,98.00
2023-01-27T00:22:49.989Z,98.00
2023-01-27T00:25:35.957Z,98.10
2023-01-27T00:28:25.648Z,98.10
2023-01-27T00:31:31.921Z,98.00
2023-01-27T00:34:17.836Z,98.10
2023-01-27T00:37:03.665Z,97.80
2023-01-27T00:39:52.274Z,97.60
2023-01-27T00:42:38.384Z,97.70
2023-01-27T00:45:43.166Z,97.70
2023-01-27T00:48:29.592Z,97.90
2023-01-27T00:51:17.505Z,97.80
2023-01-27T00:54:05.121Z,97.90
2023-01-27T00:56:51.738Z,97.80
2023-01-27T00:59:37.849Z,97.50
2023-01-27T01:02:24.085Z,97.20
2023-01-27T01:05:10.303Z,97.40
2023-01-27T01:07:56.411Z,97.40
2023-01-27T01:10:43.335Z,97.80
2023-01-27T01:13:29.379Z,97.50
2023-01-27T01:16:19.458Z,97.20
2023-01-27T01:19:05.954Z,97.10
2023-01-27T01:21:51.783Z,97.10
2023-01-27T01:24:37.892Z,97.30
2023-01-27T01:27:23.918Z,97.20
2023-01-27T01:30:11.148Z,97.10
2023-01-27T01:32:57.772Z,97.10
2023-01-27T01:35:43.892Z,97.30
2023-01-27T01:38:30.088Z,97.30
2023-01-27T01:41:19.278Z,97.20
2023-01-27T01:44:30.527Z,97.10
2023-01-27T01:47:19.666Z,96.60
2023-01-27T01:50:06.288Z,96.90
2023-01-27T01:52:53.779Z,97.00
2023-01-27T01:55:41.220Z,97.20
2023-01-27T01:58:28.192Z,97.20
2023-01-27T02:01:19.347Z,97.20
2023-01-27T02:04:11.594Z,97.20
2023-01-27T02:07:08.677Z,97.20
2023-01-27T02:09:56.515Z,97.10
2023-01-27T02:12:42.338Z,97.10
2023-01-27T02:15:30.165Z,97.00
2023-01-27T02:18:16.785Z,96.90
2023-01-27T02:21:04.729Z,97.00
2023-01-27T02:23:59.982Z,97.00
2023-01-27T02:26:46.889Z,97.00
2023-01-27T02:29:32.929Z,97.00
2023-01-27T02:32:24.507Z,97.20
2023-01-27T02:35:15.807Z,97.30
2023-01-27T02:38:04.285Z,97.40
2023-01-27T02:40:53.818Z,97.60
2023-01-27T02:43:40.181Z,97.70
2023-01-27T02:46:27.031Z,97.50
2023-01-27T02:49:13.079Z,97.80
2023-01-27T02:51:59.920Z,97.90
2023-01-27T02:54:46.886Z,97.90
2023-01-27T02:57:32.766Z,97.90
2023-01-27T03:00:51.266Z,97.90
2023-01-27T03:03:43.913Z,97.90
2023-01-27T03:06:30.195Z,98.20
2023-01-27T03:09:16.745Z,98.10
2023-01-27T03:12:20.649Z,98.20
2023-01-27T03:15:26.701Z,98.10
2023-01-27T03:18:16.252Z,98.20
2023-01-27T03:21:04.891Z,98.30
2023-01-27T03:23:51.398Z,98.40
2023-01-27T03:26:41.754Z,98.60
2023-01-27T03:29:55.678Z,98.70
2023-01-27T03:32:46.716Z,98.70
2023-01-27T03:36:21.277Z,98.70
2023-01-27T03:39:28.401Z,98.40
2023-01-27T03:42:33.038Z,98.40
2023-01-27T03:45:37.891Z,98.70
2023-01-27T03:48:24.407Z,98.80
2023-01-27T03:51:11.438Z,98.60
2023-01-27T03:53:57.278Z,98.50
2023-01-27T03:56:43.207Z,98.30
2023-01-27T03:59:29.277Z,98.40
2023-01-27T04:02:34.220Z,98.40
2023-01-27T04:05:38.508Z,98.40
2023-01-27T04:08:26.014Z,98.20
2023-01-27T04:11:31.828Z,98.30
2023-01-27T04:14:18.419Z,98.20
2023-01-27T04:17:12.553Z,98.30
2023-01-27T04:19:58.441Z,98.30
2023-01-27T04:22:44.591Z,98.20
2023-01-27T04:25:30.443Z,98.00
2023-01-27T04:28:22.303Z,98.00
2023-01-27T04:31:16.192Z,97.90
2023-01-27T04:34:02.275Z,98.00
2023-01-27T04:36:48.503Z,97.80
2023-01-27T04:39:36.255Z,97.90
2023-01-27T04:42:22.729Z,98.00
2023-01-27T04:45:10.418Z,97.90
2023-01-27T04:47:56.817Z,98.00
2023-01-27T04:50:42.855Z,97.80
2023-01-27T04:53:29.146Z,98.00
2023-01-27T04:56:27.827Z,97.80
2023-01-27T04:59:17.666Z,97.80
2023-01-27T05:02:04.796Z,97.70
2023-01-27T05:04:50.965Z,98.00
2023-01-27T05:07:36.982Z,98.10
2023-01-27T05:10:23.130Z,98.00
2023-01-27T05:13:09.293Z,97.90
2023-01-27T05:16:15.380Z,97.70
2023-01-27T05:19:02.211Z,97.80
2023-01-27T05:21:48.703Z,97.80
2023-01-27T05:24:34.681Z,97.70
2023-01-27T05:27:21.237Z,97.80
2023-01-27T05:30:08.163Z,97.60
2023-01-27T05:32:54.050Z,97.60
2023-01-27T05:35:40.115Z,97.50
2023-01-27T05:38:25.976Z,97.60
2023-01-27T05:41:13.298Z,97.70
2023-01-27T05:43:59.896Z,97.40
2023-01-27T05:46:46.068Z,97.30
2023-01-27T05:49:32.486Z,97.30
2023-01-27T05:52:18.740Z,97.60
2023-01-27T05:55:04.980Z,97.50
2023-01-27T05:57:50.893Z,97.60
2023-01-27T06:00:36.859Z,97.70
2023-01-27T06:03:23.649Z,97.60
2023-01-27T06:06:10.923Z,97.50
2023-01-27T06:08:58.001Z,97.20
2023-01-27T06:11:43.761Z,97.30
2023-01-27T06:14:29.640Z,97.30
2023-01-27T06:17:15.642Z,97.70
2023-01-27T06:20:01.880Z,97.60
2023-01-27T06:22:50.513Z,97.50
2023-01-27T06:25:38.654Z,97.70
2023-01-27T06:28:29.189Z,97.60
2023-01-27T06:31:18.151Z,97.60
2023-01-27T06:34:04.199Z,97.60
2023-01-27T06:36:52.574Z,97.60
2023-01-27T06:39:38.903Z,97.50
2023-01-27T06:42:25.070Z,97.70
2023-01-27T06:45:12.651Z,97.50
2023-01-27T06:48:00.658Z,97.50
2023-01-27T06:50:46.852Z,97.50
2023-01-27T06:53:32.918Z,97.50
2023-01-27T06:56:19.496Z,97.60
2023-01-27T06:59:05.426Z,97.50
2023-01-27T07:01:51.732Z,97.90
2023-01-27T07:04:37.995Z,97.80
2023-01-27T07:07:24.058Z,97.50
2023-01-27T07:10:10.806Z,97.70
2023-01-27T07:13:11.221Z,97.50
2023-01-27T07:15:57.715Z,97.70
2023-01-27T07:18:43.874Z,98.00
2023-01-27T07:21:29.804Z,98.00
2023-01-27T07:24:15.917Z,97.90
2023-01-27T07:27:01.921Z,98.00
2023-01-27T07:29:47.882Z,98.40
2023-01-27T07:32:33.950Z,98.20
2023-01-27T07:35:19.838Z,98.20
2023-01-27T07:38:06.999Z,98.20
2023-01-27T07:40:53.186Z,98.50
2023-01-27T07:43:38.992Z,98.60
2023-01-27T07:46:27.369Z,98.60
2023-01-27T07:49:13.345Z,98.70
2023-01-27T07:51:59.380Z,98.70
2023-01-27T07:54:45.446Z,98.60
2023-01-27T07:57:32.532Z,98.40
2023-01-27T08:00:21.255Z,98.50
2023-01-27T08:03:07.249Z,98.40
2023-01-27T08:05:53.202Z,98.00
2023-01-27T08:08:39.247Z,98.30
2023-01-27T08:11:25.137Z,98.20
2023-01-27T08:14:11.166Z,97.90
2023-01-27T08:16:57.210Z,98.40
2023-01-27T08:19:43.177Z,98.00
2023-01-27T08:22:29.778Z,98.20
2023-01-27T08:25:15.982Z,98.10
2023-01-27T08:28:02.026Z,97.90
2023-01-27T08:30:48.643Z,98.10
2023-01-27T08:33:35.331Z,98.00
2023-01-27T08:36:23.180Z,98.00
2023-01-27T08:39:10.506Z,98.30
2023-01-27T08:41:56.282Z,98.20
2023-01-27T08:44:43.260Z,98.20
2023-01-27T08:47:29.147Z,98.10
2023-01-27T08:50:15.492Z,98.30
2023-01-27T08:53:01.700Z,98.30
2023-01-27T08:55:47.809Z,98.40
2023-01-27T08:58:34.796Z,98.50
2023-01-27T09:01:21.061Z,98.10
2023-01-27T09:04:07.035Z,98.00
2023-01-27T09:06:54.194Z,98.00
2023-01-27T09:09:40.128Z,97.60
2023-01-27T09:12:26.011Z,97.90
2023-01-27T09:15:13.488Z,98.10
2023-01-27T09:17:59.737Z,97.90
2023-01-27T09:20:45.989Z,98.30
2023-01-27T09:23:35.701Z,98.20
2023-01-27T09:26:22.275Z,97.80
2023-01-27T09:29:08.537Z,97.70
2023-01-27T09:31:54.362Z,97.60
2023-01-27T09:34:40.225Z,97.40
2023-01-27T09:37:27.891Z,97.50
2023-01-27T09:40:25.977Z,97.30
2023-01-27T09:43:32.365Z,97.20
2023-01-27T09:46:23.707Z,97.20
2023-01-27T09:49:30.183Z,97.30
2023-01-27T09:52:46.440Z,97.30
2023-01-27T09:55:50.669Z,97.10
2023-01-27T09:58:39.630Z,97.00
2023-01-27T10:01:34.768Z,97.10
2023-01-27T10:04:45.315Z,97.10
2023-01-27T10:07:57.751Z,97.00
2023-01-27T10:10:52.375Z,96.80
2023-01-27T10:13:53.878Z,96.60
2023-01-27T10:16:49.117Z,96.40
2023-01-27T10:19:44.315Z,96.10
2023-01-27T10:22:46.124Z,96.10
2023-01-27T10:25:40.978Z,95.90
2023-01-27T10:28:30.844Z,95.50
2023-01-27T10:31:35.610Z,95.30
2023-01-27T10:34:21.776Z,95.20
2023-01-27T10:37:19.706Z,95.10
2023-01-27T10:40:35.989Z,95.20
2023-01-27T10:43:44.042Z,95.00
2023-01-27T10:46:43.557Z,94.90
2023-01-27T10:49:35.759Z,95.20
2023-01-27T10:52:30.505Z,95.20
2023-01-27T10:55:33.251Z,95.00
2023-01-27T10:58:32.560Z,95.30
2023-01-27T11:01:25.784Z,95.30
2023-01-27T11:04:39.128Z,95.30
2023-01-27T11:07:26.085Z,95.30
2023-01-27T11:10:20.467Z,95.20
2023-01-27T11:13:11.030Z,94.70
2023-01-27T11:15:57.914Z,94.70
2023-01-27T11:18:46.473Z,95.00
2023-01-27T11:21:33.851Z,94.70
2023-01-27T11:24:30.709Z,94.80
2023-01-27T11:27:25.429Z,94.90
2023-01-27T11:30:32.324Z,94.80
2023-01-27T11:33:27.365Z,94.30
2023-01-27T11:36:14.008Z,94.60
2023-01-27T11:39:01.653Z,94.40
2023-01-27T11:41:58.653Z,94.40
2023-01-27T11:44:46.146Z,94.40
2023-01-27T11:47:37.225Z,94.10
2023-01-27T11:50:24.841Z,93.80
2023-01-27T11:53:17.307Z,94.20
2023-01-27T11:56:08.442Z,94.10
2023-01-27T11:59:18.871Z,93.90
2023-01-27T12:02:07.994Z,94.20
2023-01-27T12:05:07.261Z,94.10
2023-01-27T12:08:01.425Z,94.00
2023-01-27T12:10:47.551Z,94.10
2023-01-27T12:13:33.658Z,94.00
2023-01-27T12:16:20.222Z,94.30
2023-01-27T12:19:22.706Z,94.40
2023-01-27T12:22:15.073Z,94.20
2023-01-27T12:25:05.896Z,94.50
2023-01-27T12:27:59.049Z,93.90
2023-01-27T12:30:47.686Z,93.70
2023-01-27T12:33:36.733Z,93.70
2023-01-27T12:36:24.514Z,93.70
2023-01-27T12:39:35.914Z,93.80
2023-01-27T12:42:51.775Z,93.50
2023-01-27T12:45:38.596Z,93.80
2023-01-27T12:48:31.679Z,93.60
2023-01-27T12:51:19.837Z,94.10
2023-01-27T12:54:29.315Z,93.70
2023-01-27T12:57:19.133Z,93.80
2023-01-27T13:00:06.289Z,93.70
2023-01-27T13:02:57.301Z,93.70
2023-01-27T13:05:45.752Z,93.50
2023-01-27T13:08:34.094Z,93.20
2023-01-27T13:11:32.603Z,93.50
2023-01-27T13:14:19.314Z,93.20
2023-01-27T13:17:07.297Z,93.30
2023-01-27T13:19:57.100Z,93.40
2023-01-27T13:22:47.686Z,93.20
2023-01-27T13:25:58.814Z,93.00
2023-01-27T13:28:57.419Z,92.60
2023-01-27T13:32:06.986Z,93.30
2023-01-27T13:35:08.200Z,93.10
2023-01-27T13:38:18.552Z,92.70
2023-01-27T13:41:15.585Z,92.90
2023-01-27T13:44:24.098Z,93.40
2023-01-27T13:47:20.565Z,93.50
2023-01-27T13:50:31.272Z,93.60
2023-01-27T13:53:19.647Z,93.50
2023-01-27T13:56:42.152Z,93.50
2023-01-27T13:59:41.007Z,93.60
2023-01-27T14:03:15.167Z,93.40
2023-01-27T14:06:23.290Z,93.10
2023-01-27T14:09:21.603Z,93.10
2023-01-27T14:12:22.481Z,92.90
2023-01-27T14:15:41.724Z,92.90
2023-01-27T14:18:48.592Z,92.90
2023-01-27T14:21:49.639Z,93.00
2023-01-27T14:24:53.915Z,93.20
2023-01-27T14:27:52.247Z,92.80
2023-01-27T14:30:49.187Z,93.40
2023-01-27T14:34:03.838Z,93.40
2023-01-27T14:37:08.594Z,93.60
2023-01-27T14:40:16.341Z,93.50
2023-01-27T14:43:36.893Z,93.50
2023-01-27T14:46:50.741Z,94.10
2023-01-27T14:49:46.969Z,93.80
2023-01-27T14:52:44.774Z,93.50
2023-01-27T14:55:37.017Z,94.00
2023-01-27T14:58:55.438Z,93.80
2023-01-27T15:02:19.953Z,93.90
2023-01-27T15:05:19.149Z,93.70
2023-01-27T15:08:29.576Z,93.90
2023-01-27T15:11:21.738Z,93.60
2023-01-27T15:14:41.284Z,93.80
2023-01-27T15:17:28.778Z,93.60
2023-01-27T15:20:35.964Z,93.30
2023-01-27T15:23:49.465Z,93.70
2023-01-27T15:26:37.542Z,93.50
2023-01-27T15:29:30.649Z,93.50
2023-01-27T15:32:16.503Z,93.70
2023-01-27T15:35:33.763Z,93.70
2023-01-27T15:38:29.279Z,93.60
2023-01-27T15:41:15.977Z,93.50
2023-01-27T15:44:21.691Z,93.80
2023-01-27T15:47:16.569Z,93.90
2023-01-27T15:50:23.450Z,94.20
2023-01-27T15:53:23.692Z,94.30
2023-01-27T15:56:10.497Z,94.10
2023-01-27T15:59:03.384Z,94.10
2023-01-27T16:01:59.137Z,94.60
2023-01-27T16:05:03.909Z,95.20
2023-01-27T16:07:54.606Z,95.40
2023-01-27T16:10:41.914Z,95.50
2023-01-27T16:13:29.902Z,95.70
2023-01-27T16:16:19.228Z,96.00
2023-01-27T16:19:11.768Z,96.20
2023-01-27T16:22:02.435Z,96.20
2023-01-27T16:24:56.862Z,96.60
2023-01-27T16:28:03.893Z,96.70
2023-01-27T16:31:15.327Z,96.90
2023-01-27T16:34:06.469Z,97.00
2023-01-27T16:37:14.550Z,97.10
2023-01-27T16:40:23.052Z,96.90
2023-01-27T16:43:17.664Z,97.40
2023-01-27T16:46:04.747Z,97.40
2023-01-27T16:48:52.497Z,97.40
2023-01-27T16:51:39.326Z,97.60
2023-01-27T16:54:35.864Z,97.60
2023-01-27T16:57:35.499Z,97.50
2023-01-27T17:00:25.454Z,97.60
2023-01-27T17:03:18.718Z,97.60
2023-01-27T17:06:14.708Z,97.80
2023-01-27T17:09:02.428Z,97.90
2023-01-27T17:11:49.095Z,98.10
2023-01-27T17:14:41.965Z,98.10
2023-01-27T17:17:32.347Z,98.10
2023-01-27T17:20:27.315Z,98.10
2023-01-27T17:23:38.766Z,98.20
2023-01-27T17:26:25.553Z,97.90
2023-01-27T17:29:21.186Z,97.90
2023-01-27T17:32:38.250Z,98.00
2023-01-27T17:35:32.832Z,97.90
2023-01-27T17:38:24.796Z,98.00
2023-01-27T17:41:46.496Z,97.90
2023-01-27T17:44:33.285Z,97.80
2023-01-27T17:47:22.010Z,97.80
2023-01-27T17:50:08.497Z,97.70
2023-01-27T17:52:57.080Z,97.40
2023-01-27T17:55:42.965Z,97.40
2023-01-27T17:58:28.967Z,97.20
2023-01-27T18:01:15.916Z,97.40
2023-01-27T18:04:02.570Z,97.40
2023-01-27T18:06:51.171Z,97.30
2023-01-27T18:09:51.101Z,97.50
2023-01-27T18:12:37.998Z,97.40
2023-01-27T18:15:48.736Z,97.40
2023-01-27T18:18:36.248Z,97.60
2023-01-27T18:21:27.107Z,97.60
2023-01-27T18:24:22.538Z,97.10
2023-01-27T18:27:24.693Z,97.00
2023-01-27T18:30:19.038Z,96.80
2023-01-27T18:33:06.712Z,96.80
2023-01-27T18:36:00.594Z,96.70
2023-01-27T18:38:49.914Z,96.80
2023-01-27T18:41:46.921Z,96.60
2023-01-27T18:44:35.878Z,96.50
2023-01-27T18:47:26.774Z,96.50
2023-01-27T18:50:20.065Z,96.60
2023-01-27T18:53:16.159Z,96.80
2023-01-27T18:56:04.398Z,96.60
2023-01-27T18:58:50.558Z,96.50
2023-01-27T19:01:36.815Z,96.50
2023-01-27T19:04:25.446Z,96.60
2023-01-27T19:07:16.845Z,96.60
2023-01-27T19:10:06.091Z,96.60
2023-01-27T19:12:53.226Z,96.60
2023-01-27T19:15:51.253Z,96.60
2023-01-27T19:18:40.057Z,96.40
2023-01-27T19:21:26.480Z,96.60
2023-01-27T19:24:12.773Z,96.30
2023-01-27T19:26:58.755Z,96.30
2023-01-27T19:29:45.047Z,96.30
2023-01-27T19:32:31.016Z,96.40
2023-01-27T19:35:16.963Z,96.10
2023-01-27T19:38:04.735Z,95.90
2023-01-27T19:40:51.067Z,96.10
2023-01-27T19:43:37.127Z,95.90
2023-01-27T19:46:23.540Z,95.70
2023-01-27T19:49:17.504Z,95.80
2023-01-27T19:52:03.906Z,95.70
2023-01-27T19:54:49.848Z,96.00
2023-01-27T19:57:36.258Z,96.00
2023-01-27T20:00:31.066Z,96.00
2023-01-27T20:03:17.498Z,95.90
2023-01-27T20:06:03.763Z,96.20
2023-01-27T20:08:59.652Z,96.10
2023-01-27T20:11:46.033Z,96.00
2023-01-27T20:14:32.059Z,95.90
2023-01-27T20:17:18.004Z,95.90
2023-01-27T20:20:04.258Z,95.90
2023-01-27T20:22:50.918Z,95.60
2023-01-27T20:25:37.408Z,95.70
2023-01-27T20:28:23.446Z,95.80
2023-01-27T20:31:18.324Z,95.90
2023-01-27T20:34:04.346Z,96.00
2023-01-27T20:36:50.381Z,95.90
2023-01-27T20:39:36.269Z,95.90
2023-01-27T20:42:22.481Z,95.80
2023-01-27T20:45:09.256Z,95.90
2023-01-27T20:47:56.108Z,96.00
2023-01-27T20:50:42.274Z,96.00
2023-01-27T20:53:32.844Z,95.80
2023-01-27T20:56:21.523Z,96.00
2023-01-27T20:59:07.636Z,96.00
2023-01-27T21:01:53.525Z,96.00
2023-01-27T21:04:40.179Z,96.10
2023-01-27T21:07:26.407Z,96.20
2023-01-27T21:10:12.273Z,96.10
2023-01-27T21:12:58.239Z,96.00
2023-01-27T21:15:48.996Z,96.10
2023-01-27T21:18:38.656Z,96.30
2023-01-27T21:21:27.460Z,96.30
2023-01-27T21:24:13.873Z,96.10
2023-01-27T21:27:00.102Z,96.20
2023-01-27T21:29:45.896Z,96.30
2023-01-27T21:32:31.959Z,96.10
2023-01-27T21:35:17.906Z,96.20
2023-01-27T21:38:04.060Z,96.10
2023-01-27T21:40:52.315Z,96.20
2023-01-27T21:43:56.891Z,96.10
2023-01-27T21:46:42.950Z,96.00
2023-01-27T21:49:29.058Z,96.00
2023-01-27T21:52:14.978Z,95.90
2023-01-27T21:55:02.694Z,96.00
2023-01-27T21:57:53.225Z,96.00
2023-01-27T22:00:39.470Z,96.00
2023-01-27T22:03:25.342Z,96.20
2023-01-27T22:06:11.394Z,96.10
2023-01-27T22:08:57.301Z,96.20
2023-01-27T22:11:43.285Z,95.90
2023-01-27T22:14:29.801Z,95.90
2023-01-27T22:17:16.518Z,96.20
2023-01-27T22:20:04.318Z,96.10
2023-01-27T22:22:51.808Z,95.90
2023-01-27T22:25:38.000Z,95.90
2023-01-27T22:28:25.438Z,96.00
2023-01-27T22:31:11.508Z,95.90
2023-01-27T22:33:57.636Z,96.30
2023-01-27T22:36:43.538Z,96.20
2023-01-27T22:39:29.714Z,96.20
2023-01-27T22:42:15.674Z,96.00
2023-01-27T22:45:02.379Z,95.90
2023-01-27T22:47:49.766Z,96.00
2023-01-27T22:50:36.831Z,96.40
2023-01-27T22:53:23.244Z,96.20
2023-01-27T22:56:09.671Z,96.30
2023-01-27T22:58:55.710Z,96.20
2023-01-27T23:01:41.656Z,96.00
2023-01-27T23:04:27.684Z,96.40
2023-01-27T23:07:13.526Z,96.10
2023-01-27T23:09:59.603Z,96.20
2023-01-27T23:12:45.545Z,96.30
2023-01-27T23:15:31.567Z,96.20
2023-01-27T23:18:18.069Z,96.40
2023-01-27T23:21:08.282Z,96.30
2023-01-27T23:23:54.296Z,96.30
2023-01-27T23:26:40.330Z,96.40
2023-01-27T23:29:28.387Z,96.30
2023-01-27T23:32:15.243Z,96.30
2023-01-27T23:35:01.230Z,96.30
2023-01-27T23:37:47.262Z,96.30
2023-01-27T23:40:34.515Z,96.30
2023-01-27T23:43:22.384Z,96.20
2023-01-27T23:46:08.513Z,96.40
2023-01-27T23:48:55.371Z,96.10
2023-01-27T23:51:41.485Z,96.10
2023-01-27T23:54:27.591Z,96.10
2023-01-27T23:57:13.724Z,96.20
2023-01-27T23:59:59.763Z,96.20
